Latest Weather Observations for Cape Flattery

IDQ60801

Issued at 6:43 pm EST Sunday 22 May 2022 (issued every 10 minutes, with the page automatically refreshed every 10 minutes)

About weather observations | Map of weather stations | Latest weather observations for QLD | Other Formats
Station Details ID: 031213 Name: CAPE FLATTERY Lat: -14.97 Lon: 145.31 Height: 18.5 m
Data from the previous 72 hours. | See also: Recent months at Cape Flattery
Date/Time
EST
Temp
°C
App
Temp
°C
Dew
Point
°C
Rel
Hum
%
Delta-T
°C
Wind Press
QNH
hPa
Press
MSL
hPa
Rain since
9am
mm
Dir  Spd
km/h
Gust
km/h
Spd
kts
Gust
kts
22/06:30pm 24.9 24.3 22.6 87 1.5 SSE 30 39 16 21 1011.9 1011.8 7.8
22/06:00pm 24.7 24.5 22.8 89 1.3 SSE 28 39 15 21 1011.7 1011.6 7.8
22/05:30pm 23.9 23.7 22.7 93 0.8 SSE 28 41 15 22 1011.4 1011.3 7.8
22/05:00pm 24.6 25.3 23.0 91 1.1 SSE 24 32 13 17 1011.2 1011.1 7.8
22/04:30pm 25.7 25.3 22.4 82 2.2 SSE 28 39 15 21 1011.0 1010.9 7.8
22/04:00pm 26.0 25.5 22.9 83 2.1 SSE 30 39 16 21 1010.8 1010.7 7.8
22/03:30pm 26.1 26.3 23.4 85 1.8 SSE 28 41 15 22 1010.7 1010.6 7.8
22/03:00pm 25.3 25.8 23.9 92 1.0 SSE 28 37 15 20 1010.7 1010.6 7.8
22/02:30pm 26.3 26.4 24.0 87 1.6 SSE 30 39 16 21 1010.8 1010.7 7.8
22/02:00pm 25.6 26.1 24.0 91 1.1 SE 28 41 15 22 1011.1 1011.0 7.8
22/01:42pm 25.1 24.9 24.1 94 0.7 SSE 32 50 17 27 1011.3 1011.2 7.8
22/01:30pm 26.9 26.8 24.2 85 1.9 SSE 32 41 17 22 1011.3 1011.2 7.8
22/01:00pm 25.9 26.9 24.1 90 1.2 SSE 26 35 14 19 1011.8 1011.7 7.8
22/12:30pm 25.6 25.7 24.6 94 0.7 SSE 32 41 17 22 1012.0 1011.9 7.8
22/12:00pm 25.9 25.7 24.1 90 1.2 SSE 32 41 17 22 1012.4 1012.3 7.6
22/11:30am 26.2 26.8 24.8 92 1.0 SE 30 39 16 21 1012.8 1012.7 7.6
22/11:00am 25.2 26.0 24.5 96 0.5 SSE 28 35 15 19 1013.1 1013.0 7.6
22/10:30am 24.4 24.4 23.7 96 0.5 SE 30 44 16 24 1013.5 1013.4 7.4
22/10:00am 25.4 26.4 24.2 93 0.8 SSE 26 35 14 19 1013.4 1013.3 0.0
22/09:30am 25.8 26.4 24.8 94 0.7 SSE 30 37 16 20 1013.2 1013.1 0.0
22/09:00am 24.8 25.3 23.9 95 0.6 SE 28 39 15 21 1013.1 1013.0 24.8
22/08:30am 25.3 26.2 24.6 96 0.5 SSE 28 43 15 23 1012.7 1012.6 24.4
22/08:00am 24.7 25.3 24.2 97 0.3 SSE 28 41 15 22 1012.6 1012.5 24.4
22/07:30am 24.5 25.0 24.0 97 0.3 SSE 28 35 15 19 1012.2 1012.1 24.4
22/07:00am 24.1 27.0 23.8 98 0.2 SSE 15 24 8 13 1012.1 1012.0 24.2
22/06:30am 23.8 26.5 23.5 98 0.2 S 15 17 8 9 1011.9 1011.8 22.6
22/06:00am 23.5 25.7 23.2 98 0.2 SSE 17 22 9 12 1011.7 1011.6 22.6
22/05:30am 23.5 25.1 23.2 98 0.2 SSE 20 26 11 14 1011.5 1011.4 22.6
22/05:00am 23.7 24.1 23.2 97 0.3 SSE 26 33 14 18 1011.5 1011.4 22.0
22/04:30am 23.9 24.5 23.4 97 0.3 SSE 26 35 14 19 1011.4 1011.3 21.6
22/04:00am 23.9 23.7 23.4 97 0.3 SSE 30 43 16 23 1011.3 1011.2 21.6
22/03:30am 24.4 24.6 23.5 95 0.6 S 28 37 15 20 1011.3 1011.2 20.8
22/03:00am 24.3 23.7 23.4 95 0.6 SSE 32 44 17 24 1011.6 1011.5 20.8
22/02:30am 24.0 24.5 23.3 96 0.5 SSE 26 37 14 20 1011.8 1011.7 20.6
22/02:00am 23.9 24.6 23.0 95 0.6 SSE 24 30 13 16 1012.2 1012.1 19.0
22/01:30am 24.9 24.6 22.6 87 1.5 SSE 28 39 15 21 1012.5 1012.4 18.2
22/01:00am 25.0 24.4 22.7 87 1.6 SSE 30 39 16 21 1012.4 1012.3 18.2
22/12:30am 25.3 23.9 22.0 82 2.2 SSE 32 43 17 23 1012.7 1012.6 18.2
22/12:00am 25.1 24.2 22.2 84 1.9 SSE 30 43 16 23 1012.8 1012.7 18.2
 
Date/Time
EST
Temp
°C
App
Temp
°C
Dew
Point
°C
Rel
Hum
%
Delta-T
°C
Wind Press
QNH
hPa
Press
MSL
hPa
Rain since
9am
mm
Dir  Spd
km/h
Gust
km/h
Spd
kts
Gust
kts
21/11:30pm 25.2 24.3 22.1 83 2.1 SSE 30 43 16 23 1012.9 1012.8 18.2
21/11:00pm 25.1 24.2 22.2 84 1.9 SSE 30 39 16 21 1013.1 1013.0 18.2
21/10:30pm 25.0 24.3 22.5 86 1.7 SSE 30 39 16 21 1013.2 1013.1 18.2
21/10:00pm 24.9 24.1 22.4 86 1.7 SSE 30 39 16 21 1013.5 1013.4 18.2
21/09:30pm 24.9 24.9 23.0 89 1.3 SSE 28 41 15 22 1013.6 1013.5 18.2
21/09:00pm 24.6 24.4 22.8 90 1.2 SSE 28 39 15 21 1013.6 1013.5 18.2
21/08:30pm 24.6 24.6 23.0 91 1.1 SSE 28 39 15 21 1013.4 1013.3 18.2
21/08:00pm 24.3 24.4 23.3 94 0.7 SSE 28 39 15 21 1013.0 1012.9 18.2
21/07:30pm 24.1 24.7 23.4 96 0.5 SSE 26 37 14 20 1012.8 1012.7 18.2
21/07:00pm 23.9 23.9 23.0 95 0.6 SSE 28 37 15 20 1012.4 1012.3 17.8
21/06:30pm 24.7 24.8 23.3 92 1.0 SSE 28 37 15 20 1012.2 1012.1 14.8
21/06:00pm 24.6 24.4 22.8 90 1.2 SSE 28 43 15 23 1011.9 1011.8 14.4
21/05:30pm 25.1 24.7 23.0 88 1.4 SSE 30 41 16 22 1011.6 1011.5 14.4
21/05:00pm 24.9 25.0 23.3 91 1.1 SSE 28 39 15 21 1011.5 1011.4 14.4
21/04:30pm 26.3 27.3 24.2 88 1.4 SSE 26 35 14 19 1011.3 1011.2 14.2
21/04:00pm 25.7 26.1 23.7 89 1.4 SSE 28 39 15 21 1011.3 1011.2 14.2
21/03:30pm 25.3 25.8 23.9 92 1.0 SSE 28 39 15 21 1011.3 1011.2 14.0
21/03:00pm 25.6 25.1 23.8 90 1.2 SSE 33 43 18 23 1011.4 1011.3 14.0
21/02:30pm 25.0 24.9 23.6 92 1.0 SSE 30 46 16 25 1011.7 1011.6 14.0
21/02:00pm 25.0 25.2 24.1 95 0.6 SSE 30 39 16 21 1011.8 1011.7 14.0
21/01:54pm 25.1 25.9 24.4 96 0.5 SSE 28 46 15 25 1011.9 1011.8 14.0
21/01:30pm 24.7 24.6 24.2 97 0.3 SSE 32 43 17 23 1012.1 1012.0 14.0
21/01:00pm 24.3 24.8 24.0 98 0.2 SSE 28 39 15 21 1012.6 1012.5 13.6
21/12:30pm 23.1 22.2 22.1 94 0.7 SE 30 44 16 24 1013.1 1013.0 7.4
21/12:00pm 24.6 24.1 23.6 94 0.7 SSE 32 43 17 23 1013.2 1013.1 1.8
21/11:30am 24.6 23.7 22.8 90 1.2 SSE 32 41 17 22 1013.8 1013.7 0.0
21/11:00am 26.6 26.0 23.3 82 2.3 SSE 32 43 17 23 1013.9 1013.8 0.0
21/10:30am 26.1 24.5 22.6 81 2.4 SSE 35 48 19 26 1014.4 1014.3 0.0
21/10:00am 26.5 25.5 22.6 79 2.6 SSE 32 46 17 25 1014.4 1014.3 0.0
21/09:30am 27.0 26.9 23.5 81 2.4 SSE 30 41 16 22 1014.5 1014.4 0.0
21/09:00am 26.4 26.1 23.3 83 2.1 SSE 30 39 16 21 1014.5 1014.4 0.2
21/08:30am 26.3 26.1 23.4 84 2.0 SSE 30 41 16 22 1014.2 1014.1 0.2
21/08:00am 25.7 25.4 23.2 86 1.7 SSE 30 37 16 20 1013.9 1013.8 0.2
21/07:30am 25.4 24.4 22.7 85 1.8 SSE 32 43 17 23 1013.7 1013.6 0.2
21/07:00am 25.3 25.4 22.6 85 1.8 SSE 26 35 14 19 1013.5 1013.4 0.2
21/06:30am 25.4 26.1 22.9 86 1.7 SSE 24 32 13 17 1013.2 1013.1 0.2
21/06:00am 25.2 25.0 22.1 83 2.1 SSE 26 35 14 19 1013.0 1012.9 0.2
21/05:30am 25.3 25.0 22.6 85 1.8 SSE 28 37 15 20 1012.9 1012.8 0.2
21/05:00am 25.1 25.1 22.4 85 1.8 SSE 26 37 14 20 1012.6 1012.5 0.2
21/04:30am 25.0 25.1 22.5 86 1.7 SSE 26 35 14 19 1012.5 1012.4 0.2
21/04:00am 25.2 24.6 22.7 86 1.7 SSE 30 41 16 22 1012.4 1012.3 0.2
21/03:30am 25.4 25.2 22.7 85 1.8 SSE 28 41 15 22 1012.5 1012.4 0.2
21/03:00am 25.4 24.9 22.9 86 1.7 SSE 30 39 16 21 1012.6 1012.5 0.2
21/02:30am 25.3 25.4 23.2 88 1.4 SSE 28 37 15 20 1012.6 1012.5 0.2
21/02:00am 25.0 25.3 22.9 88 1.4 SSE 26 35 14 19 1012.9 1012.8 0.2
21/01:30am 25.5 25.3 22.8 85 1.8 SSE 28 43 15 23 1013.1 1013.0 0.2
21/01:00am 25.1 24.5 22.6 86 1.7 SSE 30 37 16 20 1013.5 1013.4 0.2
21/12:30am 25.5 25.2 23.2 87 1.6 SSE 30 39 16 21 1013.7 1013.6 0.2
21/12:00am 25.5 25.8 23.0 86 1.7 SSE 26 33 14 18 1013.8 1013.7 0.2
 
Date/Time
EST
Temp
°C
App
Temp
°C
Dew
Point
°C
Rel
Hum
%
Delta-T
°C
Wind Press
QNH
hPa
Press
MSL
hPa
Rain since
9am
mm
Dir  Spd
km/h
Gust
km/h
Spd
kts
Gust
kts
20/11:30pm 25.7 25.7 23.0 85 1.8 SSE 28 37 15 20 1013.9 1013.8 0.2
20/11:00pm 25.8 26.3 23.3 86 1.7 SSE 26 33 14 18 1014.0 1013.9 0.2
20/10:30pm 25.8 26.1 22.9 84 2.0 SSE 26 35 14 19 1014.1 1014.0 0.2
20/10:00pm 25.8 25.8 23.1 85 1.8 SSE 28 33 15 18 1014.4 1014.3 0.2
20/09:30pm 25.9 26.2 23.0 84 2.0 SSE 26 33 14 18 1014.4 1014.3 0.2
20/09:00pm 25.8 26.3 23.3 86 1.7 SSE 26 33 14 18 1014.5 1014.4 0.2
20/08:30pm 25.5 26.8 23.4 88 1.4 SE 22 32 12 17 1014.4 1014.3 0.2
20/08:00pm 25.8 26.6 23.1 85 1.8 SSE 24 33 13 18 1014.1 1014.0 0.2
20/07:30pm 25.9 26.3 23.2 85 1.8 SSE 26 33 14 18 1013.9 1013.8 0.2
20/07:00pm 25.7 26.5 23.2 86 1.7 SSE 24 30 13 16 1013.4 1013.3 0.2
20/06:30pm 25.7 26.7 22.8 84 2.0 SSE 22 28 12 15 1013.3 1013.2 0.2
20/06:00pm 25.6 26.5 22.7 84 2.0 SSE 22 30 12 16 1013.0 1012.9 0.2
20/05:30pm 26.0 27.2 22.5 81 2.4 SSE 20 28 11 15 1012.9 1012.8 0.2
20/05:00pm 26.7 27.0 23.0 80 2.5 SSE 26 33 14 18 1012.9 1012.8 0.2
20/04:30pm 26.6 27.9 23.3 82 2.3 SSE 22 28 12 15 1012.8 1012.7 0.2
20/04:00pm 26.6 27.9 23.3 82 2.3 SSE 22 30 12 16 1012.7 1012.6 0.2
20/03:30pm 26.7 27.0 23.0 80 2.5 SSE 26 33 14 18 1012.5 1012.4 0.2
20/03:00pm 27.3 28.3 23.5 80 2.6 SSE 24 32 13 17 1012.5 1012.4 0.2
20/02:30pm 28.2 29.0 23.8 77 3.0 S 26 33 14 18 1012.6 1012.5 0.2
20/02:00pm 28.3 29.8 24.3 79 2.8 SSE 24 32 13 17 1012.8 1012.7 0.2
20/01:30pm 26.3 26.9 23.4 84 2.0 SSE 26 33 14 18 1013.3 1013.2 0.2
20/01:00pm 28.3 28.9 24.1 78 2.9 SSE 28 35 15 19 1013.6 1013.5 0.2
20/12:30pm 28.5 29.5 24.1 77 3.0 SSE 26 33 14 18 1014.0 1013.9 0.2
20/12:00pm 28.4 29.8 24.8 81 2.5 SSE 26 35 14 19 1014.4 1014.3 0.2
20/11:30am 28.6 29.0 23.1 72 3.8 SE 26 33 14 18 1014.7 1014.6 0.2
20/11:00am 28.4 30.5 23.8 76 3.2 SSE 19 26 10 14 1014.9 1014.8 0.2
20/10:30am 27.3 29.5 24.2 83 2.1 SSE 20 28 11 15 1015.1 1015.0 0.2
20/10:00am 28.4 30.0 23.3 74 3.5 SE 20 32 11 17 1015.1 1015.0 0.2
20/09:30am 28.2 30.4 24.0 78 2.9 SSE 19 26 10 14 1015.2 1015.1 0.0
20/09:00am 27.4 29.5 24.1 82 2.3 SSE 20 26 11 14 1015.3 1015.2 7.4
20/08:30am 26.9 28.9 23.6 82 2.3 SSE 19 26 10 14 1015.1 1015.0 7.4
20/08:00am 26.4 27.9 23.1 82 2.2 SSE 20 26 11 14 1014.9 1014.8 7.4
20/07:30am 25.8 27.8 22.9 84 2.0 SE 17 22 9 12 1014.7 1014.6 7.4
20/07:00am 24.5 27.2 22.2 87 1.5 SE 11 17 6 9 1014.4 1014.3 7.4
20/06:30am 24.3 25.8 22.0 87 1.5 SE 17 24 9 13 1014.1 1014.0 7.4
20/06:00am 24.8 25.5 22.9 89 1.3 SE 24 33 13 18 1013.9 1013.8 7.4
20/05:30am 24.6 26.5 22.7 89 1.3 SE 17 20 9 11 1013.6 1013.5 7.4
20/05:00am 24.6 26.0 22.8 90 1.2 SSE 20 30 11 16 1013.4 1013.3 7.4
20/04:30am 24.4 25.8 22.8 91 1.1 SE 20 30 11 16 1013.3 1013.2 7.4
20/04:00am 24.4 25.8 22.5 89 1.3 SSE 19 26 10 14 1013.2 1013.1 7.4
20/03:30am 24.4 26.7 22.7 90 1.1 SSE 15 24 8 13 1013.4 1013.3 7.4
20/03:00am 24.6 24.9 22.3 87 1.5 SE 24 33 13 18 1013.6 1013.5 7.4
20/02:30am 24.8 26.3 23.0 90 1.2 SSE 20 30 11 16 1013.8 1013.7 7.4
20/02:00am 25.0 26.1 23.1 89 1.3 SSE 22 33 12 18 1014.0 1013.9 7.4
20/01:30am 25.1 26.7 23.2 89 1.3 SSE 20 30 11 16 1014.2 1014.1 7.4
20/01:00am 24.9 26.4 23.0 89 1.3 SSE 20 28 11 15 1014.4 1014.3 7.4
20/12:30am 24.9 26.4 23.0 89 1.3 SSE 20 28 11 15 1014.6 1014.5 7.4
20/12:00am 24.5 26.2 22.4 88 1.4 SE 17 22 9 12 1014.7 1014.6 7.4
 
Date/Time
EST
Temp
°C
App
Temp
°C
Dew
Point
°C
Rel
Hum
%
Delta-T
°C
Wind Press
QNH
hPa
Press
MSL
hPa
Rain since
9am
mm
Dir  Spd
km/h
Gust
km/h
Spd
kts
Gust
kts
19/11:30pm 24.6 26.1 22.7 89 1.3 SSE 19 26 10 14 1015.1 1015.0 7.4
19/11:00pm 24.7 26.4 23.1 91 1.1 SE 19 26 10 14 1015.2 1015.1 7.4
19/10:30pm 24.6 26.2 23.2 92 0.9 SE 20 26 11 14 1015.2 1015.1 7.4
19/10:00pm 24.7 26.6 23.7 94 0.7 SSE 20 26 11 14 1015.5 1015.4 7.4
19/09:30pm 24.1 24.9 23.1 94 0.7 SE 24 37 13 20 1015.6 1015.5 7.4
19/09:00pm 24.8 27.1 23.4 92 1.0 SSE 17 24 9 13 1015.4 1015.3 4.8
19/08:30pm 24.9 26.7 23.5 92 1.0 SSE 20 28 11 15 1015.3 1015.2 4.8
19/08:00pm 24.8 26.8 23.6 93 0.8 SSE 19 26 10 14 1015.0 1014.9 4.8
19/07:30pm 24.7 26.5 23.5 93 0.8 SSE 20 30 11 16 1014.6 1014.5 4.8
19/07:00pm 24.4 27.2 23.7 96 0.5 SSE 15 28 8 15 1014.2 1014.1 4.8

Other formats

Comma delimited format used in spreadsheet applications
http://www.bom.gov.au/fwo/IDQ60801/IDQ60801.94188.axf

JavaScript Object Notation format (JSON) in row-major order
http://www.bom.gov.au/fwo/IDQ60801/IDQ60801.94188.json

Data quality

Most of these data are generated automatically and are frequently updated. Quality checks on data are not normally performed. It is possible for incorrect values to appear. Refer to information at About Latest Weather Observations and please check the disclaimer before using these data.